Time;durP1;ratioP1;P1;durP2;ratioP2;P2;SDS_P1;SDS_P2;PMS_P1;PMS_P2;Temp;Humidity;BMP_temperature;BMP_pressure;BME280_temperature;BME280_humidity;BME280_pressure;Samples;Min_cycle;Max_cycle;Signal;HPM_P1;HPM_P2
2021/10/02 00:34:01;;;;;;;15.80;12.90;;;;;;;8.85;85.07;101207.27;229544;1197;138771;-73
2021/10/02 00:44:40;;;;;;;14.10;12.80;;;;;;;8.83;85.60;101185.75;229113;1196;139065;-75
2021/10/02 00:49:43;;;;;;;15.70;14.10;;;;;;;8.88;85.36;101181.38;229742;1195;138346;-75
2021/10/02 00:54:46;;;;;;;16.70;15.00;;;;;;;8.82;85.86;101174.14;229123;1195;138762;-76
2021/10/02 00:59:49;;;;;;;18.90;16.00;;;;;;;8.77;86.47;101172.77;229142;1200;139093;-74
2021/10/02 01:04:57;;;;;;;17.00;14.40;;;;;;;8.84;86.63;101167.33;229341;1196;139677;-76
2021/10/02 01:10:20;;;;;;;15.90;14.10;;;;;;;8.91;86.45;101163.70;229608;1195;139884;-76
2021/10/02 01:15:36;;;;;;;15.80;14.10;;;;;;;8.93;86.42;101157.45;229555;1196;139174;-75
2021/10/02 01:20:49;;;;;;;17.40;15.60;;;;;;;8.94;86.79;101156.30;229124;1195;138689;-77
2021/10/02 01:26:04;;;;;;;16.60;14.90;;;;;;;8.95;87.12;101150.75;229729;1198;104074;-74
2021/10/02 01:31:24;;;;;;;16.90;15.10;;;;;;;8.96;87.26;101150.30;229965;1197;103141;-75
2021/10/02 01:36:52;;;;;;;15.20;13.50;;;;;;;8.94;87.89;101145.61;229239;1198;103366;-75
2021/10/02 01:47:19;;;;;;;20.50;14.80;;;;;;;8.96;88.90;101131.52;229244;1196;138500;-73
2021/10/02 01:52:33;;;;;;;16.30;14.20;;;;;;;8.94;88.97;101125.91;229593;1196;139229;-75
2021/10/02 01:57:39;;;;;;;16.10;13.20;;;;;;;8.91;89.31;101122.43;229216;1196;139050;-76
2021/10/02 02:02:47;;;;;;;14.60;13.10;;;;;;;8.91;89.50;101120.48;229150;1196;138911;-74
2021/10/02 02:07:53;;;;;;;20.20;14.30;;;;;;;8.90;89.58;101116.69;229353;1196;139217;-75
2021/10/02 02:12:59;;;;;;;15.70;14.00;;;;;;;8.89;89.82;101121.06;229524;1196;138600;-74
2021/10/02 02:18:04;;;;;;;15.80;13.50;;;;;;;8.88;90.10;101125.13;229273;1196;139286;-74
2021/10/02 02:23:07;;;;;;;15.90;13.60;;;;;;;8.86;90.20;101119.84;229109;1196;139165;-75
2021/10/02 02:28:10;;;;;;;14.70;13.10;;;;;;;8.92;89.97;101110.57;229412;1196;140128;-75
2021/10/02 02:33:15;;;;;;;15.80;14.10;;;;;;;8.90;90.05;101104.22;229626;1196;138835;-74
2021/10/02 02:38:17;;;;;;;16.00;14.30;;;;;;;8.90;90.18;101098.46;229427;1196;138316;-74
2021/10/02 02:43:20;;;;;;;14.60;13.00;;;;;;;8.90;90.05;101089.32;229161;1196;139093;-74
2021/10/02 02:48:27;;;;;;;13.10;11.80;;;;;;;8.92;90.11;101091.93;229272;1196;138960;-72
2021/10/02 02:53:46;;;;;;;15.60;13.90;;;;;;;8.98;90.15;101087.25;229750;1195;139797;-73
2021/10/02 02:58:54;;;;;;;14.40;12.40;;;;;;;9.01;89.92;101085.54;229417;1196;139260;-74
2021/10/02 03:03:58;;;;;;;12.80;11.20;;;;;;;9.02;89.91;101085.13;228887;1196;139040;-74
2021/10/02 03:09:01;;;;;;;14.10;12.40;;;;;;;8.97;90.38;101080.83;229207;1196;138572;-74
2021/10/02 03:14:05;;;;;;;12.80;10.40;;;;;;;8.96;90.51;101080.51;229875;1196;138750;-75
2021/10/02 03:19:09;;;;;;;13.50;10.70;;;;;;;8.92;90.65;101086.48;229278;1196;139173;-75
2021/10/02 03:24:14;;;;;;;13.00;10.10;;;;;;;8.95;90.71;101084.15;229559;1196;139687;-72
2021/10/02 03:29:18;;;;;;;12.60;11.00;;;;;;;8.87;91.04;101082.48;230246;1196;138591;-76
2021/10/02 03:34:20;;;;;;;12.40;10.50;;;;;;;8.87;91.32;101079.39;230611;1195;138289;-77
2021/10/02 03:39:22;;;;;;;11.60;10.40;;;;;;;8.89;91.38;101077.30;229942;1196;138619;-75
2021/10/02 03:44:24;;;;;;;12.30;11.00;;;;;;;8.90;91.63;101077.89;229979;1196;139450;-75
2021/10/02 03:49:25;;;;;;;13.20;11.40;;;;;;;8.91;91.77;101075.00;229678;1196;139948;-75
2021/10/02 03:54:27;;;;;;;14.80;12.00;;;;;;;8.96;91.80;101069.14;229440;1196;139032;-76
2021/10/02 03:59:29;;;;;;;13.10;10.80;;;;;;;8.98;91.49;101069.48;229289;1196;139351;-75
2021/10/02 04:04:31;;;;;;;15.20;11.60;;;;;;;8.96;91.73;101071.42;229229;1196;139747;-76
2021/10/02 04:09:34;;;;;;;13.30;10.20;;;;;;;9.00;91.84;101074.77;229299;1196;139042;-76
2021/10/02 04:14:36;;;;;;;15.90;12.60;;;;;;;8.98;91.89;101074.05;229876;1195;138746;-75
2021/10/02 04:19:39;;;;;;;13.40;11.90;;;;;;;9.03;91.94;101069.27;229886;1196;138531;-75
2021/10/02 04:24:42;;;;;;;13.50;10.60;;;;;;;9.06;91.98;101067.04;229649;1196;138436;-75
2021/10/02 04:29:43;;;;;;;16.10;11.80;;;;;;;9.04;91.88;101067.05;229381;1196;139272;-73
2021/10/02 04:34:45;;;;;;;15.30;12.10;;;;;;;9.10;92.05;101061.95;229351;1195;139059;-75
2021/10/02 04:39:47;;;;;;;14.80;11.00;;;;;;;9.13;91.71;101058.95;229337;1196;139098;-74
2021/10/02 04:44:49;;;;;;;15.50;12.30;;;;;;;9.20;91.80;101050.81;229159;1195;138784;-75
2021/10/02 04:49:52;;;;;;;15.70;12.40;;;;;;;9.27;91.45;101047.02;229240;1196;138435;-75
2021/10/02 04:54:56;;;;;;;17.00;12.90;;;;;;;9.24;91.35;101039.00;229335;1196;139184;-73
2021/10/02 04:59:58;;;;;;;18.10;13.70;;;;;;;9.23;91.57;101038.44;229277;1196;139147;-74
2021/10/02 05:04:59;;;;;;;16.00;13.10;;;;;;;9.27;91.39;101034.70;229219;1196;139096;-73
2021/10/02 05:10:01;;;;;;;17.30;14.00;;;;;;;9.29;91.31;101023.45;229209;1196;139664;-74
2021/10/02 05:15:03;;;;;;;18.50;14.30;;;;;;;9.31;91.17;101032.60;229352;1195;139250;-76
2021/10/02 05:20:06;;;;;;;18.50;13.90;;;;;;;9.35;91.08;101032.51;229401;1196;140265;-75
2021/10/02 05:25:08;;;;;;;18.50;14.80;;;;;;;9.32;91.25;101031.66;229227;1199;139557;-75
2021/10/02 05:30:10;;;;;;;18.80;14.10;;;;;;;9.40;91.09;101034.34;229218;1196;139730;-75
2021/10/02 05:35:12;;;;;;;17.70;13.90;;;;;;;9.43;90.78;101025.84;229804;1196;139384;-76
2021/10/02 05:40:15;;;;;;;21.30;16.70;;;;;;;9.48;90.62;101027.85;229606;1196;138676;-75
2021/10/02 05:45:16;;;;;;;21.70;15.90;;;;;;;9.45;90.68;101023.73;229558;1196;138290;-77
2021/10/02 05:50:18;;;;;;;19.40;15.40;;;;;;;9.45;90.72;101022.00;229380;1196;139027;-76
2021/10/02 05:55:20;;;;;;;20.10;15.60;;;;;;;9.45;90.90;101025.11;229862;1196;139248;-77
2021/10/02 06:00:21;;;;;;;18.90;15.70;;;;;;;9.52;90.69;101025.70;229959;1196;139474;-76
2021/10/02 06:05:26;;;;;;;18.80;15.50;;;;;;;9.51;90.49;101021.05;230111;1196;138624;-76
2021/10/02 06:10:28;;;;;;;18.20;14.80;;;;;;;9.50;90.63;101021.02;229517;1196;138979;-76
2021/10/02 06:15:29;;;;;;;16.70;13.70;;;;;;;9.50;90.45;101019.19;230533;1196;139545;-76
2021/10/02 06:20:31;;;;;;;17.00;13.70;;;;;;;9.55;90.34;101018.41;229312;1196;139895;-73
2021/10/02 06:25:33;;;;;;;15.70;13.00;;;;;;;9.63;90.01;101019.59;228983;1197;138670;-77
2021/10/02 06:30:35;;;;;;;16.70;14.50;;;;;;;9.69;89.67;101020.05;230078;1196;138506;-72
2021/10/02 06:35:37;;;;;;;17.10;14.10;;;;;;;9.65;89.90;101025.58;229435;1195;139741;-73
2021/10/02 06:40:41;;;;;;;16.80;13.70;;;;;;;9.62;90.06;101030.91;229300;1196;139127;-74
2021/10/02 06:45:43;;;;;;;16.00;13.70;;;;;;;9.68;89.96;101024.39;229587;1196;138940;-77
2021/10/02 06:50:45;;;;;;;18.70;14.50;;;;;;;9.77;89.62;101029.89;229368;1196;139842;-75
2021/10/02 06:55:46;;;;;;;20.00;15.00;;;;;;;9.81;89.64;101024.48;229827;1196;138923;-75
2021/10/02 07:00:48;;;;;;;18.50;14.90;;;;;;;9.88;89.39;101030.90;229428;1196;139193;-75
2021/10/02 07:05:50;;;;;;;19.10;15.20;;;;;;;9.87;89.34;101035.80;228838;1197;139413;-75
2021/10/02 07:10:52;;;;;;;17.70;14.40;;;;;;;9.87;89.49;101032.20;229352;1196;139082;-75
2021/10/02 07:15:54;;;;;;;19.00;14.60;;;;;;;9.93;89.28;101032.80;229849;1196;139013;-75
2021/10/02 07:20:55;;;;;;;19.50;15.20;;;;;;;9.97;89.31;101029.42;230011;1195;140206;-78
2021/10/02 07:25:57;;;;;;;18.80;15.70;;;;;;;9.97;89.11;101026.96;230348;1196;138750;-79
2021/10/02 07:30:59;;;;;;;17.40;13.60;;;;;;;10.04;89.00;101030.59;229930;1196;139796;-79
2021/10/02 07:36:01;;;;;;;14.80;13.30;;;;;;;10.13;88.79;101026.62;229256;1196;139898;-79
2021/10/02 07:41:05;;;;;;;15.90;12.90;;;;;;;10.22;88.74;101019.20;229575;1193;139408;-77
2021/10/02 07:46:11;;;;;;;15.60;13.80;;;;;;;10.24;88.36;101018.65;229750;1196;138706;-75
2021/10/02 07:51:13;;;;;;;16.00;13.50;;;;;;;10.26;88.49;101016.88;229227;1200;138661;-75
2021/10/02 07:56:16;;;;;;;16.10;12.80;;;;;;;10.32;88.23;101021.44;229286;1196;139751;-74
2021/10/02 08:01:19;;;;;;;16.70;14.10;;;;;;;10.41;87.87;101015.39;229402;1196;141529;-75
2021/10/02 08:06:22;;;;;;;14.20;12.20;;;;;;;10.55;87.53;101013.05;229164;1196;139683;-75
2021/10/02 08:11:25;;;;;;;13.50;11.20;;;;;;;10.60;87.01;101010.02;229051;1196;138636;-75
2021/10/02 08:16:30;;;;;;;12.80;11.40;;;;;;;10.61;86.89;101006.40;229010;1196;138540;-71
2021/10/02 08:21:32;;;;;;;15.80;12.50;;;;;;;10.61;86.59;101008.72;230652;1196;140111;-75
2021/10/02 08:26:35;;;;;;;16.80;12.90;;;;;;;10.65;86.81;101010.77;228770;1188;142223;-76
2021/10/02 08:31:37;;;;;;;14.00;12.20;;;;;;;10.72;86.69;101011.73;228803;1196;139128;-75
2021/10/02 08:36:39;;;;;;;14.60;12.80;;;;;;;10.76;86.35;101008.92;228932;1197;139109;-75
2021/10/02 08:41:41;;;;;;;15.00;12.40;;;;;;;10.79;86.23;101005.58;229168;1196;138538;-76
2021/10/02 08:46:46;;;;;;;13.40;12.00;;;;;;;10.88;86.18;101009.04;228951;1196;139301;-76
2021/10/02 08:51:49;;;;;;;13.60;11.50;;;;;;;10.97;85.57;101002.39;229344;1197;139854;-76
2021/10/02 08:56:52;;;;;;;13.40;12.00;;;;;;;11.07;85.60;100997.41;229155;1197;139515;-75
2021/10/02 09:01:54;;;;;;;12.30;10.80;;;;;;;11.13;85.04;100988.91;229214;1195;138553;-74
2021/10/02 09:06:57;;;;;;;14.90;12.30;;;;;;;11.13;84.97;100994.55;228999;1197;139523;-74
2021/10/02 09:11:59;;;;;;;13.10;11.20;;;;;;;11.16;85.00;100998.56;228844;1196;139516;-73
2021/10/02 09:17:01;;;;;;;12.90;11.30;;;;;;;11.22;84.91;100996.91;228811;1197;140263;-74
2021/10/02 09:22:06;;;;;;;14.70;12.00;;;;;;;11.36;84.56;100993.67;229120;1200;140524;-74
2021/10/02 09:27:30;;;;;;;11.50;10.30;;;;;;;11.45;84.17;100983.09;229222;1197;139807;-76
2021/10/02 09:32:44;;;;;;;13.60;11.50;;;;;;;11.36;84.16;100985.38;228895;1196;138814;-76
2021/10/02 09:37:54;;;;;;;12.20;10.80;;;;;;;11.44;84.46;100983.54;229150;1196;139172;-76
2021/10/02 09:42:58;;;;;;;12.70;10.80;;;;;;;11.54;84.12;100975.60;229197;1196;139911;-76
2021/10/02 09:48:02;;;;;;;12.10;10.60;;;;;;;11.60;83.82;100970.94;229015;1197;138576;-73
2021/10/02 09:53:08;;;;;;;12.60;10.00;;;;;;;11.68;83.64;100964.87;228908;1196;141537;-76
2021/10/02 09:58:12;;;;;;;12.40;11.10;;;;;;;11.73;83.46;100962.77;229103;1197;139641;-76
2021/10/02 10:03:16;;;;;;;12.40;10.60;;;;;;;11.82;83.44;100965.32;229274;1199;139875;-71
2021/10/02 10:08:27;;;;;;;10.80;9.70;;;;;;;11.89;82.96;100961.61;229399;1196;139366;-76
2021/10/02 10:13:29;;;;;;;11.60;10.40;;;;;;;11.94;82.54;100953.92;229166;1196;138542;-69
2021/10/02 10:18:38;;;;;;;11.90;10.70;;;;;;;12.08;82.49;100945.70;229117;1196;139553;-77
2021/10/02 10:23:41;;;;;;;11.90;10.80;;;;;;;12.31;81.78;100936.74;229652;1195;139849;-76
2021/10/02 10:28:45;;;;;;;12.10;10.40;;;;;;;12.79;80.76;100922.88;229615;1196;139824;-74
2021/10/02 10:33:52;;;;;;;10.60;9.50;;;;;;;12.92;80.32;100917.48;229220;1197;139699;-76
2021/10/02 10:38:54;;;;;;;12.90;10.50;;;;;;;12.95;79.64;100914.88;229002;1196;139799;-78
2021/10/02 10:43:58;;;;;;;10.30;9.20;;;;;;;12.87;79.12;100905.13;229100;1199;138928;-76
2021/10/02 10:49:00;;;;;;;9.70;8.70;;;;;;;13.00;79.27;100903.06;229632;1196;139649;-75
2021/10/02 10:54:03;;;;;;;11.10;10.10;;;;;;;13.26;78.27;100894.44;229950;1196;139706;-76
2021/10/02 10:59:06;;;;;;;11.50;10.20;;;;;;;13.87;77.04;100897.98;229424;1196;139293;-77
2021/10/02 11:04:33;;;;;;;10.50;9.50;;;;;;;14.29;74.62;100894.04;229247;1196;139355;-75
2021/10/02 11:09:43;;;;;;;10.30;9.10;;;;;;;14.70;73.39;100885.19;228757;1196;138797;-75
2021/10/02 11:14:50;;;;;;;10.60;8.60;;;;;;;15.12;71.59;100883.25;228543;1197;139631;-77
2021/10/02 11:19:51;;;;;;;12.10;8.90;;;;;;;15.08;69.85;100875.92;229987;1196;139134;-74
2021/10/02 11:24:53;;;;;;;9.50;8.10;;;;;;;15.15;70.00;100878.61;228868;1196;139553;-75
2021/10/02 11:30:11;;;;;;;9.00;8.10;;;;;;;15.41;68.07;100883.86;228707;1197;139155;-77
2021/10/02 11:35:13;;;;;;;8.90;8.10;;;;;;;16.66;63.78;100873.64;229552;1196;139300;-73
2021/10/02 11:40:33;;;;;;;8.50;7.70;;;;;;;17.31;61.85;100860.98;229060;1197;140041;-72
2021/10/02 11:45:35;;;;;;;7.90;7.10;;;;;;;17.12;61.91;100854.94;229581;1196;139404;-78
2021/10/02 11:50:37;;;;;;;8.40;7.60;;;;;;;17.26;62.17;100844.86;228854;1196;139485;-76
2021/10/02 11:55:42;;;;;;;8.90;7.10;;;;;;;17.07;62.96;100842.49;229476;1195;138255;-74
2021/10/02 12:00:43;;;;;;;7.60;6.80;;;;;;;16.43;66.10;100838.02;229974;1195;138577;-77
2021/10/02 12:05:47;;;;;;;8.70;7.90;;;;;;;16.18;66.74;100845.65;229357;1196;138371;-75
2021/10/02 12:11:25;;;;;;;9.90;8.30;;;;;;;16.19;66.49;100843.89;228999;1200;108493;-75
2021/10/02 12:16:30;;;;;;;8.50;7.80;;;;;;;16.25;66.88;100837.52;229006;1200;138975;-76
2021/10/02 12:21:49;;;;;;;10.90;8.80;;;;;;;16.41;66.25;100839.21;229010;1198;139308;-73
2021/10/02 12:26:55;;;;;;;8.20;7.40;;;;;;;16.99;64.00;100835.02;229135;1197;138344;-77
2021/10/02 12:32:02;;;;;;;8.00;7.30;;;;;;;17.56;60.33;100833.44;228723;1196;138310;-76
2021/10/02 12:37:12;;;;;;;8.70;7.80;;;;;;;16.84;62.73;100832.46;229880;1196;138115;-73
2021/10/02 12:42:17;;;;;;;8.10;7.40;;;;;;;16.25;65.00;100833.91;229832;1196;138329;-76
2021/10/02 12:47:26;;;;;;;8.40;7.60;;;;;;;16.18;65.94;100832.80;229666;1195;139175;-74
2021/10/02 12:52:29;;;;;;;7.90;7.10;;;;;;;16.65;64.75;100825.61;228963;1196;138461;-73
2021/10/02 12:57:36;;;;;;;9.80;8.90;;;;;;;16.71;65.34;100826.98;229069;1197;138624;-71
2021/10/02 13:02:50;;;;;;;8.50;7.70;;;;;;;16.78;64.44;100828.55;230003;1195;138623;-73
2021/10/02 13:07:55;;;;;;;8.50;7.70;;;;;;;16.62;64.92;100822.35;229930;1196;139231;-73
2021/10/02 13:12:58;;;;;;;8.30;7.30;;;;;;;16.56;65.53;100820.40;229892;1197;138616;-73
2021/10/02 13:18:21;;;;;;;8.70;7.60;;;;;;;16.56;65.54;100815.36;229284;1197;138576;-74
2021/10/02 13:23:33;;;;;;;8.40;7.50;;;;;;;16.63;65.34;100814.29;230198;1196;138185;-75
2021/10/02 13:28:39;;;;;;;9.20;8.10;;;;;;;16.55;65.57;100818.64;230073;1196;138807;-75
2021/10/02 13:33:44;;;;;;;8.20;7.40;;;;;;;16.48;66.38;100814.25;229002;1197;138203;-73
2021/10/02 13:38:46;;;;;;;9.40;8.40;;;;;;;16.48;66.65;100810.44;229017;1196;138529;-76
2021/10/02 13:43:52;;;;;;;9.40;8.20;;;;;;;16.52;66.47;100800.20;230575;1196;138106;-74
2021/10/02 13:48:55;;;;;;;8.00;7.30;;;;;;;16.54;66.54;100800.71;230782;1196;138841;-75
2021/10/02 13:53:58;;;;;;;10.80;9.60;;;;;;;16.59;66.28;100807.70;229671;1197;139475;-76
2021/10/02 13:59:00;;;;;;;13.90;10.90;;;;;;;16.80;64.95;100810.05;230317;1197;138887;-78
2021/10/02 14:04:02;;;;;;;11.10;10.10;;;;;;;17.00;63.57;100804.95;231073;1195;138801;-76
2021/10/02 14:09:05;;;;;;;12.20;11.10;;;;;;;16.92;62.27;100808.73;230692;1196;139099;-75
2021/10/02 14:14:07;;;;;;;12.30;11.20;;;;;;;16.82;62.01;100804.58;229905;1197;138973;-78
2021/10/02 14:19:09;;;;;;;13.50;12.00;;;;;;;16.74;62.78;100803.59;229818;1197;138972;-76
2021/10/02 14:24:11;;;;;;;11.80;10.60;;;;;;;16.59;63.01;100809.67;230483;1196;139089;-78
2021/10/02 14:29:13;;;;;;;13.00;11.80;;;;;;;16.44;63.41;100807.83;230418;1196;139176;-75
2021/10/02 14:34:16;;;;;;;12.00;10.80;;;;;;;16.34;63.98;100807.43;230047;1196;139767;-75
2021/10/02 14:39:17;;;;;;;13.20;11.90;;;;;;;16.35;64.24;100806.55;229785;1197;139605;-75
2021/10/02 14:44:19;;;;;;;11.90;10.80;;;;;;;16.29;64.08;100803.70;230488;1195;139658;-77
2021/10/02 14:49:21;;;;;;;14.00;12.60;;;;;;;16.25;64.43;100812.07;230262;1196;139726;-75
2021/10/02 14:54:23;;;;;;;13.10;11.70;;;;;;;16.26;64.83;100814.14;229412;1197;139230;-79
2021/10/02 14:59:27;;;;;;;14.10;12.80;;;;;;;16.24;65.06;100819.45;229962;1197;138923;-75
2021/10/02 15:04:29;;;;;;;13.40;11.80;;;;;;;16.25;65.10;100817.71;230262;1196;139624;-77
2021/10/02 15:09:33;;;;;;;14.40;12.20;;;;;;;16.30;64.97;100819.27;230459;1195;141623;-77
2021/10/02 15:14:36;;;;;;;14.70;13.20;;;;;;;16.29;65.36;100818.46;229505;1196;138851;-74
2021/10/02 15:19:39;;;;;;;13.70;12.40;;;;;;;16.26;65.74;100821.36;229909;1196;138989;-76
2021/10/02 15:24:48;;;;;;;16.20;14.50;;;;;;;16.14;66.39;100822.64;230254;1196;138482;-78
2021/10/02 15:29:49;;;;;;;15.10;13.70;;;;;;;16.04;67.06;100823.44;230117;1197;138563;-80
2021/10/02 15:34:52;;;;;;;14.30;12.80;;;;;;;15.96;67.24;100827.23;230140;1196;138894;-78
2021/10/02 15:39:54;;;;;;;14.70;13.20;;;;;;;15.91;67.27;100831.06;229878;1196;138873;-74
2021/10/02 15:44:58;;;;;;;14.40;13.00;;;;;;;15.88;67.80;100832.85;230394;1196;139516;-75
2021/10/02 15:50:00;;;;;;;15.80;14.30;;;;;;;15.85;67.92;100828.08;230617;1196;138884;-74
2021/10/02 15:55:06;;;;;;;15.40;14.00;;;;;;;15.84;68.15;100822.48;229809;1196;139040;-76
2021/10/02 16:00:10;;;;;;;17.20;15.40;;;;;;;15.74;68.65;100819.91;229777;1196;138935;-75
2021/10/02 16:05:34;;;;;;;16.60;14.90;;;;;;;15.58;69.81;100815.73;229674;1196;138500;-76
2021/10/02 16:10:39;;;;;;;16.80;15.20;;;;;;;15.39;70.82;100810.10;230208;1196;139500;-75
2021/10/02 16:15:42;;;;;;;16.70;14.90;;;;;;;15.25;71.14;100818.89;229520;1196;138795;-75
2021/10/02 16:20:45;;;;;;;17.00;15.30;;;;;;;15.22;71.29;100815.06;229849;1196;139304;-77
2021/10/02 16:25:46;;;;;;;18.60;16.60;;;;;;;15.18;71.61;100816.52;230420;1196;139001;-75
2021/10/02 16:30:48;;;;;;;20.00;17.00;;;;;;;15.13;71.85;100813.55;229515;1196;138990;-76
2021/10/02 16:35:50;;;;;;;20.00;18.00;;;;;;;15.05;71.86;100813.09;230751;1196;138851;-75
2021/10/02 16:40:52;;;;;;;19.00;17.10;;;;;;;14.93;72.46;100809.17;230449;1196;138736;-77
2021/10/02 16:45:55;;;;;;;17.60;15.80;;;;;;;14.85;72.80;100809.60;230406;1195;139339;-77
2021/10/02 16:50:57;;;;;;;20.20;17.50;;;;;;;14.83;72.56;100812.77;230209;1196;139509;-76
2021/10/02 16:55:59;;;;;;;19.30;17.30;;;;;;;14.87;72.38;100820.74;230024;1196;139325;-79
2021/10/02 17:01:03;;;;;;;18.40;16.60;;;;;;;14.87;72.21;100831.92;230211;1196;139708;-76
2021/10/02 17:06:04;;;;;;;18.50;16.70;;;;;;;14.81;72.61;100831.70;230248;1196;138616;-79
2021/10/02 17:11:07;;;;;;;19.90;17.50;;;;;;;14.73;72.89;100840.89;230482;1196;138696;-77
2021/10/02 17:16:09;;;;;;;21.20;17.70;;;;;;;14.64;73.16;100836.35;230151;1196;138441;-76
2021/10/02 17:21:11;;;;;;;20.70;18.50;;;;;;;14.58;73.58;100847.83;230170;1197;140093;-77
2021/10/02 17:26:13;;;;;;;20.30;18.30;;;;;;;14.58;73.96;100847.52;230141;1196;139593;-78
2021/10/02 17:31:15;;;;;;;21.50;19.40;;;;;;;14.55;74.24;100845.24;230362;1196;138893;-77
2021/10/02 17:36:17;;;;;;;21.00;18.80;;;;;;;14.50;74.63;100848.92;230153;1196;138916;-79
2021/10/02 17:41:19;;;;;;;20.70;18.50;;;;;;;14.40;75.06;100846.63;230220;1196;138885;-76
2021/10/02 17:46:21;;;;;;;23.90;19.20;;;;;;;14.33;75.47;100842.60;230205;1196;139242;-76
2021/10/02 17:51:23;;;;;;;20.70;18.20;;;;;;;14.25;75.99;100831.15;230293;1196;139882;-77
2021/10/02 17:56:25;;;;;;;22.00;19.80;;;;;;;14.20;76.46;100828.50;230312;1196;139361;-77
2021/10/02 18:01:27;;;;;;;23.60;19.90;;;;;;;14.23;76.42;100830.22;230104;1196;138676;-75
2021/10/02 18:06:28;;;;;;;20.70;18.80;;;;;;;14.12;76.96;100838.77;230217;1196;139665;-79
2021/10/02 18:11:30;;;;;;;20.80;17.00;;;;;;;14.04;77.40;100833.15;230731;1196;138646;-80
2021/10/02 18:16:32;;;;;;;18.40;16.70;;;;;;;13.96;77.84;100843.86;230361;1196;139342;-74
2021/10/02 18:21:36;;;;;;;21.50;19.20;;;;;;;13.93;77.91;100851.06;230286;1196;138949;-79
2021/10/02 18:26:43;;;;;;;21.10;19.10;;;;;;;13.94;78.00;100860.77;230050;1195;139306;-72
2021/10/02 18:31:45;;;;;;;22.30;19.00;;;;;;;13.89;78.24;100861.61;229854;1196;138907;-76
2021/10/02 18:36:47;;;;;;;22.00;19.80;;;;;;;13.80;78.71;100868.27;229710;1196;138693;-78
2021/10/02 18:41:49;;;;;;;22.50;20.10;;;;;;;13.73;78.92;100867.80;229782;1196;140100;-77
2021/10/02 18:46:53;;;;;;;23.60;21.30;;;;;;;13.69;79.12;100876.33;229855;1196;139224;-78
2021/10/02 18:51:55;;;;;;;24.20;21.80;;;;;;;13.69;78.95;100876.15;230062;1196;140001;-76
2021/10/02 18:56:57;;;;;;;22.40;20.30;;;;;;;13.60;79.39;100873.43;229446;1196;139209;-77
2021/10/02 19:01:59;;;;;;;23.90;20.80;;;;;;;13.49;80.02;100875.14;229558;1196;138888;-75
2021/10/02 19:07:00;;;;;;;22.00;19.90;;;;;;;13.44;80.21;100876.26;229320;1196;139638;-75
2021/10/02 19:12:02;;;;;;;22.60;20.20;;;;;;;13.41;80.29;100872.39;229451;1196;139945;-76
2021/10/02 19:17:04;;;;;;;23.50;20.80;;;;;;;13.36;80.59;100866.17;229911;1196;139667;-77
2021/10/02 19:22:06;;;;;;;23.10;20.80;;;;;;;13.34;80.72;100868.91;229795;1196;138788;-80
2021/10/02 19:27:08;;;;;;;24.20;21.70;;;;;;;13.31;80.76;100867.80;230164;1196;138896;-76
2021/10/02 19:32:10;;;;;;;23.30;20.80;;;;;;;13.25;81.08;100859.17;230188;1196;139783;-78
2021/10/02 19:37:14;;;;;;;22.50;20.10;;;;;;;13.19;81.37;100854.25;230156;1196;139622;-76
2021/10/02 19:42:16;;;;;;;22.00;19.10;;;;;;;13.15;81.57;100855.95;229918;1196;139430;-77
2021/10/02 19:47:18;;;;;;;23.10;20.80;;;;;;;13.13;81.55;100854.58;229478;1196;139360;-76
2021/10/02 19:52:20;;;;;;;22.80;19.80;;;;;;;13.12;81.70;100855.94;230123;1196;139002;-76
2021/10/02 19:57:22;;;;;;;23.50;21.20;;;;;;;13.05;81.90;100858.58;230114;1196;138474;-77
2021/10/02 20:02:23;;;;;;;23.40;20.90;;;;;;;12.97;82.24;100858.85;229855;1196;139406;-76
2021/10/02 20:07:25;;;;;;;21.10;19.00;;;;;;;12.97;82.20;100854.76;229741;1196;139592;-78
2021/10/02 20:12:27;;;;;;;22.50;20.10;;;;;;;12.97;82.10;100850.35;230153;1196;208006;-78
2021/10/02 20:17:29;;;;;;;22.10;19.90;;;;;;;12.99;82.01;100855.43;230040;1196;139959;-78
2021/10/02 20:22:31;;;;;;;21.30;19.10;;;;;;;12.95;82.24;100854.45;229746;1196;139510;-75
2021/10/02 20:27:34;;;;;;;21.20;19.20;;;;;;;12.86;82.54;100853.90;229849;1196;139406;-78
2021/10/02 20:32:37;;;;;;;20.70;18.60;;;;;;;12.76;82.96;100859.00;230379;1196;138708;-78
2021/10/02 20:37:38;;;;;;;20.20;18.20;;;;;;;12.69;83.22;100856.74;230564;1196;139641;-79
2021/10/02 20:42:41;;;;;;;20.40;18.30;;;;;;;12.71;83.21;100853.58;230244;1196;139188;-77
2021/10/02 20:47:46;;;;;;;20.80;18.80;;;;;;;12.76;82.85;100850.02;230196;1196;139568;-75
2021/10/02 20:52:48;;;;;;;21.20;19.00;;;;;;;12.70;83.01;100844.63;230596;1196;138597;-75
2021/10/02 20:57:50;;;;;;;19.10;17.10;;;;;;;12.62;83.35;100839.77;231984;1196;139135;-78
2021/10/02 21:02:54;;;;;;;19.30;17.30;;;;;;;12.59;83.37;100838.11;230021;1196;139195;-75
2021/10/02 21:08:01;;;;;;;18.70;16.60;;;;;;;12.58;83.60;100836.17;230043;1196;139694;-76
2021/10/02 21:13:03;;;;;;;16.50;14.80;;;;;;;12.57;83.45;100826.89;230403;1196;139362;-78
2021/10/02 21:18:05;;;;;;;18.50;16.40;;;;;;;12.58;83.49;100824.31;230170;1195;139714;-76
2021/10/02 21:23:06;;;;;;;19.40;17.30;;;;;;;12.54;83.63;100819.75;229666;1197;139648;-77
2021/10/02 21:28:09;;;;;;;19.90;17.10;;;;;;;12.49;83.81;100812.59;229501;1196;138840;-77
2021/10/02 21:33:13;;;;;;;19.40;17.00;;;;;;;12.46;84.02;100807.09;229819;1196;139581;-76
2021/10/02 21:38:17;;;;;;;20.30;18.20;;;;;;;12.40;84.24;100804.84;230180;1196;140421;-77
2021/10/02 21:43:22;;;;;;;20.20;18.10;;;;;;;12.41;84.07;100807.93;230612;1196;139279;-77
2021/10/02 21:48:24;;;;;;;19.80;17.70;;;;;;;12.39;84.09;100815.25;230695;1196;139255;-77
2021/10/02 21:53:27;;;;;;;20.00;17.30;;;;;;;12.34;84.42;100818.04;230072;1196;138517;-80
2021/10/02 21:58:29;;;;;;;19.80;17.80;;;;;;;12.26;84.51;100823.95;230424;1196;138598;-76
2021/10/02 22:03:30;;;;;;;19.60;17.70;;;;;;;12.18;84.84;100827.20;229567;1196;138980;-79
2021/10/02 22:08:32;;;;;;;19.40;17.40;;;;;;;12.15;84.93;100826.98;229959;1200;139248;-77
2021/10/02 22:13:34;;;;;;;18.50;16.20;;;;;;;12.16;84.73;100825.88;230227;1196;139166;-77
2021/10/02 22:18:36;;;;;;;21.00;18.90;;;;;;;12.10;84.82;100822.70;230250;1196;138801;-77
2021/10/02 22:23:41;;;;;;;19.20;17.10;;;;;;;12.12;84.82;100825.92;229696;1196;139612;-77
2021/10/02 22:28:45;;;;;;;21.60;19.30;;;;;;;12.07;84.96;100830.60;230495;1196;139275;-72
2021/10/02 22:33:47;;;;;;;22.00;18.90;;;;;;;12.11;84.71;100832.77;230003;1195;139036;-76
2021/10/02 22:38:49;;;;;;;18.90;16.90;;;;;;;12.03;84.88;100847.09;230039;1196;139501;-75
2021/10/02 22:43:50;;;;;;;18.20;16.20;;;;;;;11.99;85.02;100850.96;229934;1187;139667;-75
2021/10/02 22:48:54;;;;;;;20.40;18.40;;;;;;;11.98;85.11;100856.20;230314;1196;138829;-75
2021/10/02 22:53:56;;;;;;;20.10;18.10;;;;;;;12.03;84.79;100855.40;229952;1195;138572;-76
2021/10/02 22:58:58;;;;;;;20.60;18.40;;;;;;;11.98;84.62;100857.50;229451;1196;139539;-75
2021/10/02 23:04:03;;;;;;;19.30;17.30;;;;;;;11.87;85.12;100856.21;229619;1180;138935;-76
2021/10/02 23:09:05;;;;;;;20.70;18.50;;;;;;;11.86;85.01;100857.59;229634;1195;140604;-75
2021/10/02 23:14:07;;;;;;;20.70;18.50;;;;;;;11.86;85.00;100854.41;229332;1196;140010;-77
2021/10/02 23:19:29;;;;;;;22.20;19.80;;;;;;;11.89;84.85;100855.83;230058;1196;139737;-76